createdAt,value
2023-03-26T00:00:38.218Z,24.59
2023-03-26T00:03:10.223Z,24.61
2023-03-26T00:05:40.973Z,24.60
2023-03-26T00:08:12.182Z,24.59
2023-03-26T00:10:44.385Z,24.56
2023-03-26T00:13:15.231Z,24.57
2023-03-26T00:15:46.317Z,24.58
2023-03-26T00:18:17.249Z,24.58
2023-03-26T00:20:48.055Z,24.55
2023-03-26T00:23:18.997Z,24.55
2023-03-26T00:25:50.958Z,24.54
2023-03-26T00:28:22.718Z,24.54
2023-03-26T00:31:01.145Z,24.51
2023-03-26T00:33:32.614Z,24.46
2023-03-26T00:36:04.792Z,24.48
2023-03-26T00:38:38.888Z,24.48
2023-03-26T00:41:17.484Z,24.47
2023-03-26T00:43:48.799Z,24.46
2023-03-26T00:46:20.381Z,24.47
2023-03-26T00:48:51.746Z,24.48
2023-03-26T00:51:23.815Z,24.48
2023-03-26T00:53:54.988Z,24.46
2023-03-26T00:56:26.427Z,24.46
2023-03-26T00:58:57.849Z,24.45
2023-03-26T01:01:30.738Z,24.45
2023-03-26T01:04:15.887Z,24.42
2023-03-26T01:06:46.960Z,24.37
2023-03-26T01:09:20.278Z,24.34
2023-03-26T01:11:51.682Z,24.32
2023-03-26T01:14:26.936Z,24.30
2023-03-26T01:16:59.261Z,24.26
2023-03-26T01:19:38.081Z,24.23
2023-03-26T01:22:11.355Z,24.24
2023-03-26T01:24:43.770Z,24.27
2023-03-26T01:27:25.785Z,24.29
2023-03-26T01:30:01.609Z,24.29
2023-03-26T01:32:45.003Z,24.32
2023-03-26T01:35:27.489Z,24.34
2023-03-26T01:38:11.621Z,24.33
2023-03-26T01:40:49.630Z,24.34
2023-03-26T01:43:33.716Z,24.34
2023-03-26T01:46:08.139Z,24.29
2023-03-26T01:48:41.733Z,24.21
2023-03-26T01:51:11.716Z,24.20
2023-03-26T01:53:46.064Z,24.16
2023-03-26T01:56:23.935Z,24.16
2023-03-26T01:59:07.860Z,24.12
2023-03-26T02:01:46.500Z,24.09
2023-03-26T02:04:26.478Z,24.11
2023-03-26T02:07:05.935Z,24.14
2023-03-26T02:09:45.969Z,24.13
2023-03-26T02:12:17.646Z,24.14
2023-03-26T02:14:48.668Z,24.14
2023-03-26T02:17:24.356Z,24.14
2023-03-26T02:19:55.195Z,24.16
2023-03-26T02:22:30.099Z,24.16
2023-03-26T02:25:01.137Z,24.14
2023-03-26T02:27:31.888Z,24.13
2023-03-26T02:30:03.241Z,24.13
2023-03-26T02:32:35.172Z,24.12
2023-03-26T02:35:06.863Z,24.11
2023-03-26T02:37:38.412Z,24.09
2023-03-26T02:40:11.999Z,24.07
2023-03-26T02:42:41.334Z,24.02
2023-03-26T02:45:12.393Z,23.97
2023-03-26T02:47:43.435Z,23.96
2023-03-26T02:50:14.610Z,23.93
2023-03-26T02:52:49.132Z,23.93
2023-03-26T02:55:19.943Z,23.89
2023-03-26T02:57:50.669Z,23.91
2023-03-26T03:00:22.818Z,23.94
2023-03-26T03:02:54.380Z,23.94
2023-03-26T03:05:26.762Z,23.92
2023-03-26T03:07:58.103Z,23.90
2023-03-26T03:10:32.945Z,23.85
2023-03-26T03:13:05.904Z,23.85
2023-03-26T03:15:36.677Z,23.83
2023-03-26T03:18:08.186Z,23.85
2023-03-26T03:20:38.863Z,23.88
2023-03-26T03:23:09.493Z,23.87
2023-03-26T03:25:41.098Z,23.86
2023-03-26T03:28:11.918Z,23.84
2023-03-26T03:30:42.996Z,23.88
2023-03-26T03:33:13.839Z,23.90
2023-03-26T03:35:45.986Z,23.90
2023-03-26T03:38:17.294Z,23.90
2023-03-26T03:40:48.004Z,23.88
2023-03-26T03:43:18.880Z,23.88
2023-03-26T03:45:49.525Z,23.88
2023-03-26T03:48:20.601Z,23.88
2023-03-26T03:50:51.297Z,23.89
2023-03-26T03:53:26.051Z,23.87
2023-03-26T03:55:57.980Z,23.83
2023-03-26T03:58:31.141Z,23.79
2023-03-26T04:01:04.495Z,23.75
2023-03-26T04:03:38.972Z,23.73
2023-03-26T04:06:11.565Z,23.72
2023-03-26T04:08:42.197Z,23.76
2023-03-26T04:11:12.795Z,23.78
2023-03-26T04:13:43.769Z,23.79
2023-03-26T04:16:14.651Z,23.79
2023-03-26T04:18:46.490Z,23.81
2023-03-26T04:21:17.343Z,23.83
2023-03-26T04:23:48.448Z,23.82
2023-03-26T04:26:21.076Z,23.81
2023-03-26T04:28:54.889Z,23.79
2023-03-26T04:31:30.496Z,23.76
2023-03-26T04:34:06.887Z,23.77
2023-03-26T04:36:37.571Z,23.78
2023-03-26T04:39:08.267Z,23.80
2023-03-26T04:41:39.285Z,23.82
2023-03-26T04:44:09.916Z,23.82
2023-03-26T04:46:43.780Z,23.78
2023-03-26T04:49:14.969Z,23.76
2023-03-26T04:51:46.876Z,23.75
2023-03-26T04:54:21.726Z,23.75
2023-03-26T04:56:58.513Z,23.75
2023-03-26T04:59:35.100Z,23.73
2023-03-26T05:02:08.446Z,23.73
2023-03-26T05:04:40.854Z,23.73
2023-03-26T05:07:16.189Z,23.72
2023-03-26T05:09:46.900Z,23.74
2023-03-26T05:12:18.073Z,23.76
2023-03-26T05:14:48.768Z,23.76
2023-03-26T05:17:21.445Z,23.77
2023-03-26T05:19:52.806Z,23.76
2023-03-26T05:22:23.497Z,23.76
2023-03-26T05:24:54.292Z,23.75
2023-03-26T05:27:24.931Z,23.74
2023-03-26T05:30:01.209Z,23.73
2023-03-26T05:32:33.303Z,23.70
2023-03-26T05:35:04.491Z,23.70
2023-03-26T05:37:35.734Z,23.72
2023-03-26T05:40:12.143Z,23.72
2023-03-26T05:42:43.285Z,23.71
2023-03-26T05:45:16.282Z,23.70
2023-03-26T05:47:47.888Z,23.70
2023-03-26T05:50:18.776Z,23.70
2023-03-26T05:52:49.594Z,23.70
2023-03-26T05:55:22.189Z,23.70
2023-03-26T05:57:52.889Z,23.69
2023-03-26T06:00:24.382Z,23.70
2023-03-26T06:02:56.819Z,23.70
2023-03-26T06:05:32.707Z,23.69
2023-03-26T06:08:03.858Z,23.67
2023-03-26T06:10:34.712Z,23.66
2023-03-26T06:13:05.433Z,23.67
2023-03-26T06:15:36.480Z,23.65
2023-03-26T06:18:07.470Z,23.63
2023-03-26T06:20:38.442Z,23.62
2023-03-26T06:23:09.215Z,23.61
2023-03-26T06:25:41.412Z,23.61
2023-03-26T06:28:12.389Z,23.60
2023-03-26T06:30:43.563Z,23.58
2023-03-26T06:33:14.405Z,23.56
2023-03-26T06:35:45.971Z,23.57
2023-03-26T06:38:16.833Z,23.57
2023-03-26T06:40:47.748Z,23.59
2023-03-26T06:43:18.605Z,23.60
2023-03-26T06:45:53.689Z,23.56
2023-03-26T06:48:24.373Z,23.55
2023-03-26T06:50:55.502Z,23.56
2023-03-26T06:53:26.508Z,23.55
2023-03-26T06:55:57.288Z,23.54
2023-03-26T06:58:28.233Z,23.53
2023-03-26T07:01:01.318Z,23.56
2023-03-26T07:03:32.087Z,23.59
2023-03-26T07:06:02.805Z,23.56
2023-03-26T07:08:33.745Z,23.54
2023-03-26T07:11:04.465Z,23.53
2023-03-26T07:13:36.706Z,23.52
2023-03-26T07:16:08.969Z,23.50
2023-03-26T07:18:39.671Z,23.48
2023-03-26T07:21:13.002Z,23.48
2023-03-26T07:23:44.843Z,23.49
2023-03-26T07:26:34.464Z,23.49
2023-03-26T07:29:14.873Z,23.46
2023-03-26T07:31:52.959Z,23.46
2023-03-26T07:34:42.828Z,23.46
2023-03-26T07:37:28.000Z,23.46
2023-03-26T07:40:04.066Z,23.46
2023-03-26T07:42:51.723Z,23.43
2023-03-26T07:45:28.325Z,23.41
2023-03-26T07:48:00.431Z,23.43
2023-03-26T07:50:31.669Z,23.43
2023-03-26T07:53:03.320Z,23.45
2023-03-26T07:55:35.322Z,23.48
2023-03-26T07:58:21.382Z,23.55
2023-03-26T08:00:58.154Z,23.60
2023-03-26T08:04:23.453Z,23.68
2023-03-26T08:07:01.192Z,23.69
2023-03-26T08:09:38.628Z,23.71
2023-03-26T08:12:19.697Z,23.80
2023-03-26T08:15:02.008Z,23.95
2023-03-26T08:17:38.206Z,24.09
2023-03-26T08:20:22.314Z,24.20
2023-03-26T08:23:02.297Z,24.30
2023-03-26T08:25:38.179Z,24.37
2023-03-26T08:28:20.892Z,24.44
2023-03-26T08:30:55.118Z,24.49
2023-03-26T08:33:29.763Z,24.54
2023-03-26T08:36:00.741Z,24.59
2023-03-26T08:38:31.759Z,24.64
2023-03-26T08:41:28.954Z,24.68
2023-03-26T08:44:42.138Z,24.72
2023-03-26T08:47:42.332Z,24.76
2023-03-26T08:50:46.813Z,24.82
2023-03-26T08:53:47.632Z,24.89
2023-03-26T08:56:27.778Z,24.95
2023-03-26T08:59:19.888Z,24.99
2023-03-26T09:02:22.581Z,25.04
2023-03-26T09:05:39.712Z,25.09
2023-03-26T09:08:37.001Z,25.14
2023-03-26T09:11:56.179Z,25.19
2023-03-26T09:14:52.231Z,25.25
2023-03-26T09:18:07.894Z,25.28
2023-03-26T09:20:56.398Z,25.33
2023-03-26T09:24:07.084Z,25.41
2023-03-26T09:26:51.835Z,25.48
2023-03-26T09:29:53.674Z,25.46
2023-03-26T09:32:59.044Z,25.41
2023-03-26T09:36:17.208Z,25.40
2023-03-26T09:38:52.877Z,25.45
2023-03-26T09:41:36.785Z,25.49
2023-03-26T09:44:50.812Z,25.54
2023-03-26T09:47:48.308Z,25.58
2023-03-26T09:50:31.047Z,25.63
2023-03-26T09:53:16.977Z,25.64
2023-03-26T09:56:04.735Z,25.68
2023-03-26T09:59:00.722Z,25.74
2023-03-26T10:01:40.666Z,25.78
2023-03-26T10:04:44.276Z,25.81
2023-03-26T10:07:32.410Z,25.85
2023-03-26T10:10:10.240Z,25.90
2023-03-26T10:12:44.577Z,25.94
2023-03-26T10:15:32.390Z,26.00
2023-03-26T10:18:27.314Z,26.07
2023-03-26T10:21:07.299Z,26.10
2023-03-26T10:24:02.752Z,26.14
2023-03-26T10:27:08.705Z,26.15
2023-03-26T10:30:21.703Z,26.20
2023-03-26T10:33:05.432Z,26.23
2023-03-26T10:35:49.317Z,26.24
2023-03-26T10:38:31.117Z,26.26
2023-03-26T10:41:14.144Z,26.27
2023-03-26T10:44:10.656Z,26.29
2023-03-26T10:47:06.973Z,26.30
2023-03-26T10:49:49.257Z,26.32
2023-03-26T10:52:23.339Z,26.35
2023-03-26T10:54:59.214Z,26.35
2023-03-26T10:57:44.675Z,26.37
2023-03-26T11:00:25.389Z,26.38
2023-03-26T11:03:16.745Z,26.39
2023-03-26T11:05:53.727Z,26.40
2023-03-26T11:08:32.886Z,26.40
2023-03-26T11:11:12.429Z,26.38
2023-03-26T11:13:53.883Z,26.38
2023-03-26T11:16:34.554Z,26.38
2023-03-26T11:19:12.960Z,26.39
2023-03-26T11:21:55.016Z,26.39
2023-03-26T11:25:05.629Z,26.40
2023-03-26T11:27:51.900Z,26.33
2023-03-26T11:30:39.326Z,26.27
2023-03-26T11:33:12.711Z,26.22
2023-03-26T11:35:45.117Z,26.21
2023-03-26T11:38:21.035Z,26.18
2023-03-26T11:40:56.601Z,26.19
2023-03-26T11:43:33.695Z,26.19
2023-03-26T11:46:05.892Z,26.18
2023-03-26T11:48:41.939Z,26.17
2023-03-26T11:51:18.980Z,26.18
2023-03-26T11:53:50.103Z,26.20
2023-03-26T11:56:28.743Z,26.22
2023-03-26T11:59:05.710Z,26.23
2023-03-26T12:01:50.707Z,26.23
2023-03-26T12:04:30.011Z,26.22
2023-03-26T12:07:17.137Z,26.21
2023-03-26T12:09:54.517Z,26.21
2023-03-26T12:12:28.303Z,26.21
2023-03-26T12:14:59.711Z,26.21
2023-03-26T12:17:34.100Z,26.22
2023-03-26T12:20:32.116Z,26.23
2023-03-26T12:23:06.620Z,26.23
2023-03-26T12:25:39.308Z,26.23
2023-03-26T12:28:20.395Z,26.22
2023-03-26T12:31:02.797Z,26.24
2023-03-26T12:33:35.480Z,26.24
2023-03-26T12:36:25.719Z,26.27
2023-03-26T12:39:16.928Z,26.29
2023-03-26T12:44:45.205Z,26.30
2023-03-26T12:44:58.848Z,26.34
2023-03-26T12:47:57.824Z,26.36
2023-03-26T12:50:33.968Z,26.37
2023-03-26T12:53:33.410Z,26.37
2023-03-26T12:56:13.430Z,26.39
2023-03-26T12:59:18.635Z,26.43
2023-03-26T13:02:02.285Z,26.43
2023-03-26T13:05:05.625Z,26.44
2023-03-26T13:07:52.969Z,26.43
2023-03-26T13:10:38.539Z,26.38
2023-03-26T13:13:23.500Z,26.34
2023-03-26T13:15:58.429Z,26.29
2023-03-26T13:18:43.607Z,26.27
2023-03-26T13:21:24.084Z,26.24
2023-03-26T13:24:02.489Z,26.24
2023-03-26T13:26:47.129Z,26.22
2023-03-26T13:29:27.206Z,26.19
2023-03-26T13:32:09.704Z,26.15
2023-03-26T13:34:55.831Z,26.13
2023-03-26T13:37:33.166Z,26.11
2023-03-26T13:40:25.556Z,26.09
2023-03-26T13:43:13.728Z,26.08
2023-03-26T13:45:59.537Z,26.05
2023-03-26T13:48:35.369Z,26.02
2023-03-26T13:51:10.913Z,26.00
2023-03-26T13:53:47.263Z,25.98
2023-03-26T13:56:24.719Z,25.97
2023-03-26T13:59:03.704Z,25.95
2023-03-26T14:01:43.571Z,25.92
2023-03-26T14:04:21.626Z,25.91
2023-03-26T14:06:58.296Z,25.91
2023-03-26T14:09:35.632Z,25.91
2023-03-26T14:12:39.068Z,25.89
